Time;durP1;ratioP1;P1;durP2;ratioP2;P2;SDS_P1;SDS_P2;PMS_P1;PMS_P2;Temp;Humidity;BMP_temperature;BMP_pressure;BME280_temperature;BME280_humidity;BME280_pressure;Samples;Min_cycle;Max_cycle;Signal;HPM_P1;HPM_P2
2023/12/21 00:01:19;;;;;;;20.23;18.25;;;;;;;;;;5045289;28;20128;-58
2023/12/21 00:03:45;;;;;;;20.75;18.65;;;;;;;;;;5045211;28;20177;-61
2023/12/21 00:06:11;;;;;;;20.58;18.50;;;;;;;;;;5048005;28;20037;-57
2023/12/21 00:08:37;;;;;;;23.52;21.02;;;;;;;;;;5048992;28;20037;-58
2023/12/21 00:11:03;;;;;;;20.88;18.92;;;;;;;;;;5048794;28;20017;-61
2023/12/21 00:13:29;;;;;;;22.52;18.65;;;;;;;;;;5048822;28;20100;-52
2023/12/21 00:15:55;;;;;;;21.27;18.90;;;;;;;;;;5048797;28;20104;-59
2023/12/21 00:18:21;;;;;;;17.10;15.40;;;;;;;;;;5048727;28;20116;-59
2023/12/21 00:20:47;;;;;;;17.05;15.35;;;;;;;;;;5048383;28;20108;-55
2023/12/21 00:23:13;;;;;;;18.20;16.40;;;;;;;;;;5048617;28;20398;-60
2023/12/21 00:25:39;;;;;;;18.42;16.63;;;;;;;;;;5027163;28;20120;-57
2023/12/21 00:28:05;;;;;;;17.20;15.50;;;;;;;;;;5041254;28;20031;-57
2023/12/21 00:30:31;;;;;;;16.98;15.27;;;;;;;;;;5048136;28;20542;-57
2023/12/21 00:32:57;;;;;;;17.90;16.10;;;;;;;;;;5048189;28;20039;-57
2023/12/21 00:35:23;;;;;;;18.30;16.50;;;;;;;;;;5048238;28;20501;-60
2023/12/21 00:37:49;;;;;;;18.10;16.30;;;;;;;;;;5048235;28;20037;-60
2023/12/21 00:40:15;;;;;;;17.30;15.60;;;;;;;;;;5047979;28;20572;-57
2023/12/21 00:42:42;;;;;;;18.25;16.45;;;;;;;;;;5047583;28;20033;-58
2023/12/21 00:45:08;;;;;;;17.98;16.20;;;;;;;;;;5049446;28;20029;-55
2023/12/21 00:47:35;;;;;;;16.77;15.07;;;;;;;;;;5052093;28;20074;-58
2023/12/21 00:50:01;;;;;;;16.88;15.18;;;;;;;;;;5053538;28;20049;-56
2023/12/21 00:52:26;;;;;;;16.98;15.27;;;;;;;;;;5052269;28;20025;-59
2023/12/21 00:54:52;;;;;;;16.48;14.77;;;;;;;;;;5052178;28;20025;-58
2023/12/21 00:57:18;;;;;;;17.08;15.38;;;;;;;;;;5052415;28;20029;-58
2023/12/21 00:59:44;;;;;;;16.65;14.95;;;;;;;;;;5052550;28;20094;-53
2023/12/21 01:02:10;;;;;;;16.27;14.57;;;;;;;;;;5064053;28;20031;-56
2023/12/21 01:04:36;;;;;;;16.48;14.77;;;;;;;;;;5072513;28;20425;-59
2023/12/21 01:07:02;;;;;;;16.90;15.20;;;;;;;;;;5073438;28;20052;-56
2023/12/21 01:09:28;;;;;;;17.00;15.30;;;;;;;;;;5072967;28;20523;-55
2023/12/21 01:11:54;;;;;;;16.40;14.70;;;;;;;;;;5054835;28;20482;-57
2023/12/21 01:14:21;;;;;;;16.85;15.15;;;;;;;;;;5073468;28;20078;-56
2023/12/21 01:16:48;;;;;;;16.65;14.95;;;;;;;;;;5072064;28;20035;-56
2023/12/21 01:19:14;;;;;;;16.63;14.93;;;;;;;;;;5055166;28;20640;-56
2023/12/21 01:21:40;;;;;;;16.55;14.85;;;;;;;;;;5072512;28;20059;-55
2023/12/21 01:24:06;;;;;;;16.35;14.65;;;;;;;;;;5072905;28;20463;-54
2023/12/21 01:26:32;;;;;;;16.08;14.38;;;;;;;;;;5072452;28;20047;-55
2023/12/21 01:28:58;;;;;;;16.55;14.85;;;;;;;;;;5072778;28;20016;-55
2023/12/21 01:31:24;;;;;;;16.98;15.27;;;;;;;;;;5054462;28;20032;-54
2023/12/21 01:33:50;;;;;;;16.70;15.00;;;;;;;;;;5054102;28;20017;-57
2023/12/21 01:36:17;;;;;;;17.60;15.90;;;;;;;;;;5071922;28;20024;-57
2023/12/21 01:38:43;;;;;;;17.38;15.68;;;;;;;;;;5072176;28;20127;-57
2023/12/21 01:41:09;;;;;;;17.15;15.45;;;;;;;;;;5072169;28;20721;-57
2023/12/21 01:43:35;;;;;;;16.70;15.00;;;;;;;;;;5071862;28;20024;-57
2023/12/21 01:46:01;;;;;;;17.65;15.95;;;;;;;;;;5071598;28;20025;-52
2023/12/21 01:48:30;;;;;;;17.40;15.70;;;;;;;;;;5054075;28;20623;-53
2023/12/21 01:50:58;;;;;;;17.85;16.10;;;;;;;;;;5071672;28;20522;-55
2023/12/21 01:53:24;;;;;;;17.45;15.75;;;;;;;;;;5072106;28;20032;-56
2023/12/21 01:55:50;;;;;;;17.80;16.10;;;;;;;;;;5071949;28;20067;-53
2023/12/21 01:58:17;;;;;;;18.58;16.77;;;;;;;;;;5072312;28;20643;-55
2023/12/21 02:00:43;;;;;;;20.65;18.77;;;;;;;;;;5071825;28;20096;-52
2023/12/21 02:03:09;;;;;;;20.52;18.73;;;;;;;;;;5071592;28;20048;-55
2023/12/21 02:05:35;;;;;;;19.10;17.30;;;;;;;;;;5071561;28;20020;-55
2023/12/21 02:08:01;;;;;;;18.63;16.83;;;;;;;;;;5071715;28;20091;-55
2023/12/21 02:10:27;;;;;;;18.15;16.35;;;;;;;;;;5071259;28;20029;-52
2023/12/21 02:12:53;;;;;;;17.77;16.08;;;;;;;;;;5071512;28;20114;-56
2023/12/21 02:15:19;;;;;;;17.55;15.85;;;;;;;;;;5071229;28;20028;-57
2023/12/21 02:17:47;;;;;;;18.65;16.85;;;;;;;;;;5071480;28;20517;-52
2023/12/21 02:20:13;;;;;;;18.92;17.13;;;;;;;;;;5071091;28;20044;-54
2023/12/21 02:22:41;;;;;;;19.55;17.75;;;;;;;;;;5071224;28;20064;-55
2023/12/21 02:25:07;;;;;;;18.90;17.10;;;;;;;;;;5052779;28;20091;-57
2023/12/21 02:27:33;;;;;;;18.92;17.13;;;;;;;;;;5051240;28;20079;-52
2023/12/21 02:29:59;;;;;;;18.08;16.27;;;;;;;;;;5050771;28;20597;-55
2023/12/21 02:32:25;;;;;;;18.90;17.10;;;;;;;;;;5051736;28;20063;-54
2023/12/21 02:34:51;;;;;;;18.77;16.98;;;;;;;;;;5051500;28;20509;-56
2023/12/21 02:37:19;;;;;;;19.00;17.20;;;;;;;;;;5051803;28;20079;-55
2023/12/21 02:39:44;;;;;;;18.58;16.77;;;;;;;;;;5051048;28;20202;-58
2023/12/21 02:42:10;;;;;;;18.10;16.30;;;;;;;;;;5032955;28;20045;-53
2023/12/21 02:44:36;;;;;;;18.83;17.02;;;;;;;;;;5050779;28;20573;-53
2023/12/21 02:47:02;;;;;;;17.70;16.00;;;;;;;;;;5050833;28;20039;-56
2023/12/21 02:49:28;;;;;;;17.13;15.43;;;;;;;;;;5050878;28;20475;-51
2023/12/21 02:51:55;;;;;;;17.40;15.70;;;;;;;;;;5051108;28;20029;-54
2023/12/21 02:54:21;;;;;;;17.42;15.73;;;;;;;;;;5033737;28;20486;-57
2023/12/21 02:56:47;;;;;;;17.65;15.95;;;;;;;;;;5051598;28;20032;-55
2023/12/21 02:59:13;;;;;;;17.10;15.40;;;;;;;;;;5050482;28;20124;-53
2023/12/21 03:01:42;;;;;;;17.50;15.80;;;;;;;;;;5050641;28;20529;-54
2023/12/21 03:04:12;;;;;;;17.25;15.55;;;;;;;;;;5051025;28;20364;-53
2023/12/21 03:06:38;;;;;;;16.50;14.80;;;;;;;;;;5029196;28;20083;-54
2023/12/21 03:09:04;;;;;;;16.70;15.00;;;;;;;;;;5048389;28;20491;-55
2023/12/21 03:11:30;;;;;;;16.80;15.10;;;;;;;;;;5050330;28;20071;-53
2023/12/21 03:13:56;;;;;;;16.30;14.60;;;;;;;;;;5050255;28;20082;-56
2023/12/21 03:16:22;;;;;;;16.83;15.13;;;;;;;;;;5050326;28;20099;-54
2023/12/21 03:18:48;;;;;;;17.67;15.98;;;;;;;;;;5050491;28;20017;-55
2023/12/21 03:21:15;;;;;;;17.55;15.85;;;;;;;;;;5050009;28;20479;-56
2023/12/21 03:23:41;;;;;;;17.50;15.80;;;;;;;;;;5028724;28;20068;-53
2023/12/21 03:26:07;;;;;;;17.85;16.15;;;;;;;;;;5048060;28;20398;-56
2023/12/21 03:28:34;;;;;;;17.48;15.77;;;;;;;;;;5048964;28;20024;-56
2023/12/21 03:31:00;;;;;;;17.30;15.60;;;;;;;;;;5048823;28;20546;-54
2023/12/21 03:33:26;;;;;;;18.77;16.98;;;;;;;;;;5049131;28;20028;-55
2023/12/21 03:35:52;;;;;;;17.58;15.88;;;;;;;;;;5049131;28;20024;-55
2023/12/21 03:38:18;;;;;;;17.58;15.88;;;;;;;;;;5049144;28;20025;-54
2023/12/21 03:40:44;;;;;;;17.65;15.95;;;;;;;;;;5047873;28;20061;-54
2023/12/21 03:43:10;;;;;;;18.25;16.45;;;;;;;;;;5062276;28;20063;-53
2023/12/21 03:45:40;;;;;;;17.67;15.98;;;;;;;;;;5073162;28;20078;-55
2023/12/21 03:48:09;;;;;;;16.95;15.25;;;;;;;;;;5073404;28;20016;-54
2023/12/21 03:50:35;;;;;;;16.15;14.45;;;;;;;;;;5073440;28;20104;-58
2023/12/21 03:53:01;;;;;;;16.85;15.15;;;;;;;;;;5073565;28;20028;-58
2023/12/21 03:55:27;;;;;;;16.73;15.02;;;;;;;;;;5073329;28;20028;-57
2023/12/21 03:57:53;;;;;;;16.88;15.18;;;;;;;;;;5073447;28;20035;-59
2023/12/21 04:00:19;;;;;;;17.15;15.45;;;;;;;;;;5073106;28;20020;-57
2023/12/21 04:02:46;;;;;;;17.15;15.45;;;;;;;;;;5072900;28;20036;-58
2023/12/21 04:05:12;;;;;;;18.20;16.40;;;;;;;;;;5072601;28;20020;-57
2023/12/21 04:07:38;;;;;;;18.08;16.27;;;;;;;;;;5055586;28;20359;-56
2023/12/21 04:10:04;;;;;;;17.38;15.68;;;;;;;;;;5072978;28;20028;-57
2023/12/21 04:12:30;;;;;;;16.90;15.20;;;;;;;;;;5054408;28;20039;-55
2023/12/21 04:14:57;;;;;;;16.25;14.55;;;;;;;;;;5052329;28;20111;-57
2023/12/21 04:17:23;;;;;;;16.38;14.68;;;;;;;;;;5052722;28;20021;-55
2023/12/21 04:19:49;;;;;;;15.73;14.02;;;;;;;;;;5052209;28;20032;-54
2023/12/21 04:22:15;;;;;;;15.57;13.88;;;;;;;;;;5052225;28;20028;-52
2023/12/21 04:24:44;;;;;;;16.25;14.55;;;;;;;;;;5052632;28;20017;-53
2023/12/21 04:27:11;;;;;;;16.83;15.13;;;;;;;;;;5052388;28;20029;-55
2023/12/21 04:29:40;;;;;;;17.08;15.38;;;;;;;;;;5052206;28;20051;-56
2023/12/21 04:32:06;;;;;;;17.55;15.85;;;;;;;;;;5051904;28;20029;-55
2023/12/21 04:34:32;;;;;;;17.08;15.38;;;;;;;;;;5053169;28;20517;-52
2023/12/21 04:36:58;;;;;;;16.05;14.35;;;;;;;;;;5052671;28;20021;-54
2023/12/21 04:39:24;;;;;;;15.98;14.27;;;;;;;;;;5052509;28;20036;-55
2023/12/21 04:41:50;;;;;;;15.75;14.05;;;;;;;;;;5052197;28;20021;-55
2023/12/21 04:44:16;;;;;;;16.10;14.40;;;;;;;;;;5052569;28;20057;-57
2023/12/21 04:46:47;;;;;;;16.42;14.73;;;;;;;;;;5052346;28;20040;-58
2023/12/21 04:49:13;;;;;;;16.55;14.85;;;;;;;;;;5052166;28;20021;-56
2023/12/21 04:51:39;;;;;;;17.17;15.48;;;;;;;;;;5050974;28;20108;-55
2023/12/21 04:54:06;;;;;;;16.17;14.48;;;;;;;;;;5051900;28;20028;-55
2023/12/21 04:56:32;;;;;;;16.75;15.05;;;;;;;;;;5051781;28;20375;-55
2023/12/21 04:58:58;;;;;;;17.20;15.50;;;;;;;;;;5045354;28;20047;-55
2023/12/21 05:01:24;;;;;;;16.88;15.18;;;;;;;;;;5064042;28;20433;-55
2023/12/21 05:03:50;;;;;;;16.75;15.05;;;;;;;;;;5073044;28;20085;-55
2023/12/21 05:06:16;;;;;;;17.08;15.38;;;;;;;;;;5072845;28;20056;-53
2023/12/21 05:08:42;;;;;;;17.92;16.13;;;;;;;;;;5072217;28;20055;-52
2023/12/21 05:11:08;;;;;;;18.90;17.10;;;;;;;;;;5071711;28;20457;-55
2023/12/21 05:13:34;;;;;;;19.35;17.55;;;;;;;;;;5072222;28;20104;-56
2023/12/21 05:16:00;;;;;;;19.70;17.90;;;;;;;;;;5054080;28;20425;-56
2023/12/21 05:18:26;;;;;;;19.38;17.58;;;;;;;;;;5071919;28;20036;-58
2023/12/21 05:20:52;;;;;;;18.80;17.00;;;;;;;;;;5071198;28;20032;-54
2023/12/21 05:23:18;;;;;;;17.98;16.17;;;;;;;;;;5071460;28;20071;-59
2023/12/21 05:25:44;;;;;;;18.13;16.33;;;;;;;;;;5053472;28;20136;-59
2023/12/21 05:28:12;;;;;;;18.05;16.25;;;;;;;;;;5063251;28;20029;-58
2023/12/21 05:30:38;;;;;;;17.52;15.82;;;;;;;;;;5050940;28;20615;-55
2023/12/21 05:33:04;;;;;;;17.10;15.40;;;;;;;;;;5050846;28;20219;-58
2023/12/21 05:35:30;;;;;;;17.23;15.52;;;;;;;;;;5050917;28;20509;-59
2023/12/21 05:37:56;;;;;;;17.35;15.65;;;;;;;;;;5051024;28;20032;-56
2023/12/21 05:40:22;;;;;;;17.50;15.80;;;;;;;;;;5029868;28;20482;-55
2023/12/21 05:42:48;;;;;;;17.08;15.38;;;;;;;;;;5046628;28;20398;-56
2023/12/21 05:45:14;;;;;;;16.60;14.90;;;;;;;;;;5050947;28;20028;-55
2023/12/21 05:47:40;;;;;;;16.45;14.75;;;;;;;;;;5050910;28;20540;-59
2023/12/21 05:50:07;;;;;;;18.08;16.27;;;;;;;;;;5050549;28;20067;-58
2023/12/21 05:52:33;;;;;;;17.30;15.60;;;;;;;;;;5050138;28;20124;-56
2023/12/21 05:54:59;;;;;;;17.88;16.08;;;;;;;;;;5029650;28;20095;-57
2023/12/21 05:57:26;;;;;;;19.27;17.48;;;;;;;;;;5050384;28;20036;-56
2023/12/21 05:59:52;;;;;;;18.58;16.77;;;;;;;;;;5050257;28;20021;-57
2023/12/21 06:02:18;;;;;;;17.95;16.15;;;;;;;;;;5050234;28;20536;-55
2023/12/21 06:04:44;;;;;;;17.42;15.73;;;;;;;;;;5049901;28;20017;-56
2023/12/21 06:07:10;;;;;;;17.88;16.08;;;;;;;;;;5050081;28;20062;-55
2023/12/21 06:09:36;;;;;;;18.23;16.42;;;;;;;;;;5029318;28;20505;-55
2023/12/21 06:12:03;;;;;;;18.77;16.98;;;;;;;;;;5029995;28;20051;-59
2023/12/21 06:14:29;;;;;;;17.90;16.10;;;;;;;;;;5047856;28;20017;-53
2023/12/21 06:16:55;;;;;;;18.30;16.50;;;;;;;;;;5062131;28;20044;-52
2023/12/21 06:19:21;;;;;;;16.25;14.55;;;;;;;;;;5070948;28;20028;-58
2023/12/21 06:21:47;;;;;;;15.85;14.15;;;;;;;;;;5052033;28;20554;-57
2023/12/21 06:24:13;;;;;;;16.63;14.93;;;;;;;;;;5069895;28;20021;-56
2023/12/21 06:26:40;;;;;;;16.50;14.80;;;;;;;;;;5069959;28;20021;-57
2023/12/21 06:29:06;;;;;;;16.27;14.57;;;;;;;;;;5070080;28;20024;-56
2023/12/21 06:31:32;;;;;;;16.38;14.68;;;;;;;;;;5051836;28;20032;-53
2023/12/21 06:33:58;;;;;;;16.08;14.38;;;;;;;;;;5069863;28;20055;-58
2023/12/21 06:36:24;;;;;;;15.52;13.82;;;;;;;;;;5069382;28;20482;-58
2023/12/21 06:38:50;;;;;;;15.60;13.90;;;;;;;;;;5069441;28;20085;-55
2023/12/21 06:41:16;;;;;;;16.10;14.40;;;;;;;;;;5069634;28;20025;-59
2023/12/21 06:43:42;;;;;;;16.48;14.77;;;;;;;;;;5069442;28;20028;-57
2023/12/21 06:46:13;;;;;;;16.90;15.20;;;;;;;;;;5051505;28;20028;-55
2023/12/21 06:48:39;;;;;;;16.77;15.07;;;;;;;;;;5069982;28;20048;-56
2023/12/21 06:51:05;;;;;;;18.23;16.42;;;;;;;;;;5069160;28;20406;-57
2023/12/21 06:53:31;;;;;;;17.70;15.98;;;;;;;;;;5069425;28;20060;-56
2023/12/21 06:55:57;;;;;;;18.83;17.02;;;;;;;;;;5069191;28;20028;-56
2023/12/21 06:58:24;;;;;;;17.70;15.90;;;;;;;;;;5069371;28;20074;-56
2023/12/21 07:00:50;;;;;;;17.50;15.80;;;;;;;;;;5069134;28;20027;-54
2023/12/21 07:03:16;;;;;;;17.05;15.35;;;;;;;;;;5069499;28;20039;-56
2023/12/21 07:05:42;;;;;;;17.95;16.15;;;;;;;;;;5069130;28;20055;-57
2023/12/21 07:08:08;;;;;;;18.27;16.48;;;;;;;;;;5069323;28;20031;-54
2023/12/21 07:10:34;;;;;;;18.35;16.55;;;;;;;;;;5069499;28;20486;-52
2023/12/21 07:13:01;;;;;;;18.50;16.70;;;;;;;;;;5069503;28;20048;-57
2023/12/21 07:15:27;;;;;;;14.60;11.50;;;;;;;;;;5068401;28;20031;-55
2023/12/21 07:17:53;;;;;;;14.57;11.60;;;;;;;;;;5069283;28;20024;-57
2023/12/21 07:20:24;;;;;;;15.00;12.70;;;;;;;;;;5068772;28;20039;-57
2023/12/21 07:22:50;;;;;;;15.20;13.07;;;;;;;;;;5068970;28;20367;-52
2023/12/21 07:25:16;;;;;;;14.88;12.35;;;;;;;;;;5068823;28;20028;-56
2023/12/21 07:27:42;;;;;;;14.90;12.45;;;;;;;;;;5051130;28;20370;-54
2023/12/21 07:30:08;;;;;;;14.60;11.68;;;;;;;;;;5069108;28;20369;-53
2023/12/21 07:32:34;;;;;;;14.30;10.70;;;;;;;;;;5069209;28;20394;-52
2023/12/21 07:35:00;;;;;;;13.88;9.55;;;;;;;;;;5066870;28;20040;-53
2023/12/21 07:37:26;;;;;;;14.60;11.40;;;;;;;;;;5046296;28;20017;-53
2023/12/21 07:39:52;;;;;;;14.10;10.27;;;;;;;;;;5062979;28;20029;-57
2023/12/21 07:42:18;;;;;;;14.25;10.63;;;;;;;;;;5048795;28;20494;-57
2023/12/21 07:44:45;;;;;;;14.45;11.30;;;;;;;;;;5059897;28;20041;-56
2023/12/21 07:47:11;;;;;;;14.65;11.80;;;;;;;;;;5068644;28;20052;-52
2023/12/21 07:49:37;;;;;;;14.80;12.20;;;;;;;;;;5068733;28;20036;-55
2023/12/21 07:52:03;;;;;;;14.90;12.40;;;;;;;;;;5067563;28;20048;-55
2023/12/21 07:54:29;;;;;;;14.80;12.13;;;;;;;;;;5030802;28;20479;-52
2023/12/21 07:56:55;;;;;;;15.00;12.73;;;;;;;;;;5048493;28;20032;-57
2023/12/21 07:59:22;;;;;;;14.93;12.50;;;;;;;;;;5049264;28;20521;-55
2023/12/21 08:01:48;;;;;;;14.80;12.10;;;;;;;;;;5048395;28;20048;-55
2023/12/21 08:04:16;;;;;;;15.10;12.75;;;;;;;;;;5048861;28;20017;-58
2023/12/21 08:06:42;;;;;;;15.20;13.30;;;;;;;;;;5048898;28;20025;-55
2023/12/21 08:09:08;;;;;;;15.40;13.65;;;;;;;;;;5049717;28;20518;-51
2023/12/21 08:11:34;;;;;;;15.90;14.20;;;;;;;;;;5068968;28;20043;-60
2023/12/21 08:14:00;;;;;;;18.00;16.20;;;;;;;;;;5068499;28;20092;-57
2023/12/21 08:16:26;;;;;;;19.38;17.58;;;;;;;;;;5067899;28;20020;-57
2023/12/21 08:18:52;;;;;;;19.98;18.08;;;;;;;;;;5068173;28;20070;-55
2023/12/21 08:21:18;;;;;;;19.00;17.20;;;;;;;;;;5067791;28;20063;-52
2023/12/21 08:23:44;;;;;;;17.60;15.88;;;;;;;;;;5067776;28;20025;-56
2023/12/21 08:26:10;;;;;;;17.40;15.70;;;;;;;;;;5068893;28;20028;-54
2023/12/21 08:28:36;;;;;;;17.30;15.60;;;;;;;;;;5072238;28;20042;-58
2023/12/21 08:31:03;;;;;;;17.40;15.70;;;;;;;;;;5071544;28;20111;-57
2023/12/21 08:33:30;;;;;;;16.45;14.75;;;;;;;;;;5071678;28;20024;-57
2023/12/21 08:35:56;;;;;;;15.52;13.82;;;;;;;;;;5071550;28;20021;-57
2023/12/21 08:38:22;;;;;;;15.15;13.23;;;;;;;;;;5031301;28;20091;-59
2023/12/21 08:40:48;;;;;;;16.55;14.85;;;;;;;;;;5031168;28;20456;-55
2023/12/21 08:43:14;;;;;;;17.52;15.57;;;;;;;;;;5039724;28;20033;-57
2023/12/21 08:45:40;;;;;;;17.17;15.45;;;;;;;;;;5051056;28;20122;-56
2023/12/21 08:48:06;;;;;;;16.88;15.00;;;;;;;;;;5051469;28;20031;-57
2023/12/21 08:50:32;;;;;;;15.30;13.50;;;;;;;;;;5051677;28;20036;-55
2023/12/21 08:53:00;;;;;;;16.63;14.93;;;;;;;;;;5051166;28;20029;-59
2023/12/21 08:55:27;;;;;;;17.27;15.57;;;;;;;;;;5049681;28;20025;-55
2023/12/21 08:57:54;;;;;;;15.55;13.85;;;;;;;;;;5050824;28;20033;-59
2023/12/21 09:00:20;;;;;;;15.73;14.02;;;;;;;;;;5050489;28;20029;-58
2023/12/21 09:02:46;;;;;;;15.43;13.77;;;;;;;;;;5049313;28;20081;-53
2023/12/21 09:05:13;;;;;;;15.57;13.88;;;;;;;;;;5051232;28;20052;-56
2023/12/21 09:07:39;;;;;;;16.77;15.07;;;;;;;;;;5050945;28;20024;-57
2023/12/21 09:10:06;;;;;;;16.05;14.35;;;;;;;;;;5050656;28;20043;-58
2023/12/21 09:12:32;;;;;;;17.15;15.45;;;;;;;;;;5030375;28;20078;-55
2023/12/21 09:14:58;;;;;;;18.52;16.73;;;;;;;;;;5012912;28;20034;-54
2023/12/21 09:17:24;;;;;;;17.42;15.73;;;;;;;;;;5030474;28;20068;-52
2023/12/21 09:19:50;;;;;;;17.30;15.60;;;;;;;;;;5012580;28;20032;-50
2023/12/21 09:22:16;;;;;;;16.52;14.82;;;;;;;;;;5030769;28;20026;-50
2023/12/21 09:24:42;;;;;;;16.25;14.55;;;;;;;;;;5030480;28;20079;-54
2023/12/21 09:27:08;;;;;;;17.50;15.80;;;;;;;;;;5030508;28;20029;-54
2023/12/21 09:29:34;;;;;;;16.95;15.25;;;;;;;;;;5030594;28;20048;-58
2023/12/21 09:32:00;;;;;;;16.67;14.98;;;;;;;;;;5030305;28;20122;-56
2023/12/21 09:34:27;;;;;;;16.20;14.50;;;;;;;;;;5030390;28;20463;-53
2023/12/21 09:36:53;;;;;;;16.65;14.95;;;;;;;;;;5012628;28;20073;-57
2023/12/21 09:39:20;;;;;;;16.05;14.35;;;;;;;;;;5049921;28;20031;-57
2023/12/21 09:41:46;;;;;;;15.40;13.70;;;;;;;;;;5068751;28;20028;-52
2023/12/21 09:44:16;;;;;;;15.35;13.68;;;;;;;;;;5052059;28;20024;-55
2023/12/21 09:46:44;;;;;;;15.40;13.70;;;;;;;;;;5070152;28;20863;-48
2023/12/21 09:49:10;;;;;;;14.93;12.82;;;;;;;;;;5052049;28;20059;-54
2023/12/21 09:51:37;;;;;;;14.82;12.27;;;;;;;;;;5069730;28;20079;-56
2023/12/21 09:54:04;;;;;;;15.77;14.07;;;;;;;;;;5064484;28;20031;-55
2023/12/21 09:56:30;;;;;;;16.10;14.40;;;;;;;;;;5049851;28;20023;-56
2023/12/21 09:58:58;;;;;;;15.55;13.85;;;;;;;;;;5032023;28;20079;-56
2023/12/21 10:01:24;;;;;;;15.40;13.70;;;;;;;;;;5049724;28;20044;-53
2023/12/21 10:03:50;;;;;;;15.10;12.82;;;;;;;;;;5049179;28;20056;-54
2023/12/21 10:06:16;;;;;;;15.20;13.43;;;;;;;;;;5049816;28;20032;-51
2023/12/21 10:08:42;;;;;;;15.57;13.88;;;;;;;;;;5049776;28;20032;-55
2023/12/21 10:11:08;;;;;;;15.30;13.50;;;;;;;;;;5049866;28;20071;-52
2023/12/21 10:13:35;;;;;;;15.30;13.52;;;;;;;;;;5049848;28;20175;-53
2023/12/21 10:16:03;;;;;;;15.82;14.13;;;;;;;;;;5049599;28;20196;-52
2023/12/21 10:18:29;;;;;;;15.23;13.30;;;;;;;;;;5048918;28;20016;-54
2023/12/21 10:20:55;;;;;;;16.60;14.90;;;;;;;;;;5048857;28;20044;-54
2023/12/21 10:23:21;;;;;;;15.15;13.25;;;;;;;;;;5048919;28;20017;-54
2023/12/21 10:25:48;;;;;;;15.65;13.95;;;;;;;;;;5048844;28;20108;-53
2023/12/21 10:28:14;;;;;;;16.42;14.73;;;;;;;;;;5048679;28;20037;-53
2023/12/21 10:30:40;;;;;;;17.77;15.98;;;;;;;;;;5048924;28;20110;-55
2023/12/21 10:33:08;;;;;;;16.90;15.20;;;;;;;;;;5049184;28;20163;-53
2023/12/21 10:35:36;;;;;;;15.33;13.60;;;;;;;;;;5048626;28;20025;-52
2023/12/21 10:38:02;;;;;;;15.20;13.45;;;;;;;;;;5048706;28;20347;-53
2023/12/21 10:40:28;;;;;;;15.10;13.25;;;;;;;;;;5048450;28;20330;-55
2023/12/21 10:42:56;;;;;;;17.10;15.40;;;;;;;;;;5048695;28;20036;-52
2023/12/21 10:45:22;;;;;;;15.52;13.82;;;;;;;;;;5048316;28;20025;-55
2023/12/21 10:47:51;;;;;;;16.45;14.75;;;;;;;;;;5048552;28;20021;-54
2023/12/21 10:50:18;;;;;;;16.60;14.90;;;;;;;;;;5047971;28;20112;-53
2023/12/21 10:52:46;;;;;;;16.27;14.57;;;;;;;;;;5047302;28;20021;-55
2023/12/21 10:55:14;;;;;;;16.15;14.45;;;;;;;;;;5054910;28;20080;-55
2023/12/21 10:57:41;;;;;;;15.57;13.88;;;;;;;;;;5048586;28;20035;-53
2023/12/21 11:00:17;;;;;;;15.40;13.70;;;;;;;;;;5048318;28;20090;-53
2023/12/21 11:02:45;;;;;;;15.15;13.32;;;;;;;;;;5048323;28;20495;-52
2023/12/21 11:05:11;;;;;;;15.23;13.30;;;;;;;;;;5048564;28;20021;-55
2023/12/21 11:07:40;;;;;;;15.73;14.02;;;;;;;;;;5050189;28;20055;-51
2023/12/21 11:10:07;;;;;;;15.45;13.75;;;;;;;;;;5060115;28;20698;-54
2023/12/21 11:12:34;;;;;;;15.32;13.63;;;;;;;;;;5068140;28;20430;-50
2023/12/21 11:15:01;;;;;;;14.93;12.60;;;;;;;;;;5067812;28;20024;-55
2023/12/21 11:17:27;;;;;;;15.13;13.15;;;;;;;;;;5047617;28;20067;-61
2023/12/21 11:19:53;;;;;;;15.20;13.55;;;;;;;;;;5055701;28;20115;-56
2023/12/21 11:22:21;;;;;;;15.90;14.20;;;;;;;;;;5039972;28;20021;-52
2023/12/21 11:24:47;;;;;;;16.48;14.77;;;;;;;;;;5048309;28;20059;-52
2023/12/21 11:27:13;;;;;;;18.05;16.25;;;;;;;;;;5029299;28;20100;-51
2023/12/21 11:29:40;;;;;;;17.48;15.70;;;;;;;;;;5048104;28;20099;-51
2023/12/21 11:32:06;;;;;;;16.05;14.35;;;;;;;;;;5049182;28;20040;-53
2023/12/21 11:34:37;;;;;;;16.35;14.65;;;;;;;;;;5042729;28;20116;-53
2023/12/21 11:37:25;;;;;;;15.63;13.93;;;;;;;;;;5045235;28;20037;-51
2023/12/21 11:39:53;;;;;;;15.10;12.80;;;;;;;;;;5043592;28;20040;-53
2023/12/21 11:42:32;;;;;;;14.60;11.68;;;;;;;;;;5047297;28;20079;-53
2023/12/21 11:45:01;;;;;;;14.30;10.77;;;;;;;;;;5047335;28;20053;-55
2023/12/21 11:47:28;;;;;;;14.30;10.88;;;;;;;;;;5047719;28;20049;-54
2023/12/21 11:50:03;;;;;;;14.10;10.23;;;;;;;;;;5047742;28;20029;-56
2023/12/21 11:52:29;;;;;;;14.60;11.73;;;;;;;;;;5047258;28;20032;-56
2023/12/21 11:54:55;;;;;;;16.65;14.95;;;;;;;;;;5055326;28;20032;-54
2023/12/21 11:57:21;;;;;;;15.50;13.70;;;;;;;;;;5042449;28;20012;-54
2023/12/21 12:00:05;;;;;;;15.00;12.40;;;;;;;;;;5058656;28;20162;-53
2023/12/21 12:02:31;;;;;;;15.20;12.93;;;;;;;;;;5070512;28;20017;-52
2023/12/21 12:04:57;;;;;;;14.80;12.15;;;;;;;;;;5072021;28;20570;-52
2023/12/21 12:07:23;;;;;;;15.30;13.50;;;;;;;;;;5071870;28;20147;-51
2023/12/21 12:09:49;;;;;;;15.70;14.00;;;;;;;;;;5071490;28;20032;-53
2023/12/21 12:12:15;;;;;;;15.05;13.00;;;;;;;;;;5071004;28;20028;-53
2023/12/21 12:14:41;;;;;;;15.52;13.82;;;;;;;;;;5071611;28;20039;-50
2023/12/21 12:17:09;;;;;;;17.38;15.57;;;;;;;;;;5071135;28;20020;-55
2023/12/21 12:19:37;;;;;;;19.15;17.35;;;;;;;;;;5071257;28;20036;-55
2023/12/21 12:22:03;;;;;;;;;;;;;;;;;;5071810;28;20112;-53
2023/12/21 12:24:30;;;;;;;18.02;16.23;;;;;;;;;;5071251;28;20294;-48
2023/12/21 12:26:56;;;;;;;15.95;13.80;;;;;;;;;;5071571;28;20020;-52
2023/12/21 12:29:22;;;;;;;15.18;12.80;;;;;;;;;;5071624;28;20535;-53
2023/12/21 12:31:49;;;;;;;15.10;12.30;;;;;;;;;;5071168;28;20395;-53
2023/12/21 12:34:16;;;;;;;14.27;10.70;;;;;;;;;;5071303;28;20112;-52
2023/12/21 12:36:42;;;;;;;14.18;10.43;;;;;;;;;;5071416;28;20020;-51
2023/12/21 12:39:11;;;;;;;16.73;12.35;;;;;;;;;;5039601;28;20495;-45
2023/12/21 12:41:37;;;;;;;14.68;11.80;;;;;;;;;;5031368;28;20025;-50
2023/12/21 12:44:03;;;;;;;14.60;11.50;;;;;;;;;;5031842;28;20374;-52
2023/12/21 12:46:30;;;;;;;14.90;12.48;;;;;;;;;;5031733;28;20197;-50
2023/12/21 12:48:56;;;;;;;14.80;11.65;;;;;;;;;;5032385;28;20036;-53
2023/12/21 12:51:23;;;;;;;20.98;13.93;;;;;;;;;;5031384;28;20391;-50
2023/12/21 12:53:51;;;;;;;22.02;20.02;;;;;;;;;;5031269;28;20140;-53
2023/12/21 12:56:17;;;;;;;;;;;;;;;;;;5031382;28;20026;-56
2023/12/21 12:58:43;;;;;;;20.77;18.55;;;;;;;;;;5031234;28;19913;-48
2023/12/21 13:01:09;;;;;;;18.30;16.50;;;;;;;;;;5030878;28;20120;-53
2023/12/21 13:03:35;;;;;;;16.42;14.73;;;;;;;;;;5031054;28;20073;-53
2023/12/21 13:06:01;;;;;;;18.10;14.35;;;;;;;;;;5031204;28;20017;-53
2023/12/21 13:08:28;;;;;;;15.38;12.30;;;;;;;;;;5031182;28;20026;-50
2023/12/21 13:10:54;;;;;;;14.90;12.45;;;;;;;;;;5030837;28;20026;-54
2023/12/21 13:13:20;;;;;;;14.82;12.20;;;;;;;;;;5028989;28;20057;-53
2023/12/21 13:15:46;;;;;;;16.48;14.77;;;;;;;;;;5030985;28;20041;-55
2023/12/21 13:18:12;;;;;;;17.35;13.63;;;;;;;;;;5031400;28;20039;-51
2023/12/21 13:20:38;;;;;;;15.45;13.60;;;;;;;;;;5031223;28;20479;-53
2023/12/21 13:23:04;;;;;;;15.00;12.88;;;;;;;;;;5031454;28;20128;-51
2023/12/21 13:25:30;;;;;;;16.08;12.50;;;;;;;;;;5029504;28;20133;-51
2023/12/21 13:27:56;;;;;;;14.30;10.77;;;;;;;;;;5030911;28;20025;-53
2023/12/21 13:30:23;;;;;;;15.13;10.93;;;;;;;;;;5029856;28;20287;-53
2023/12/21 13:32:49;;;;;;;14.10;9.57;;;;;;;;;;5030437;28;20029;-52
2023/12/21 13:35:17;;;;;;;18.10;10.63;;;;;;;;;;5030712;28;20104;-53
2023/12/21 13:37:43;;;;;;;15.90;14.20;;;;;;;;;;5029329;28;20053;-53
2023/12/21 13:40:12;;;;;;;16.10;14.40;;;;;;;;;;5031330;28;20032;-51
2023/12/21 13:42:39;;;;;;;22.80;20.80;;;;;;;;;;5030951;28;20317;-53
2023/12/21 13:45:05;;;;;;;22.83;20.65;;;;;;;;;;5029948;28;20049;-54
2023/12/21 13:47:34;;;;;;;21.63;19.65;;;;;;;;;;5029525;28;20044;-49
2023/12/21 13:50:00;;;;;;;22.38;20.27;;;;;;;;;;5030603;28;20036;-52
2023/12/21 13:52:26;;;;;;;20.95;18.75;;;;;;;;;;5030274;28;20021;-56
2023/12/21 13:54:52;;;;;;;22.42;20.42;;;;;;;;;;5030921;28;20033;-52
2023/12/21 13:57:19;;;;;;;18.30;16.50;;;;;;;;;;5055253;28;20012;-54
2023/12/21 13:59:45;;;;;;;18.83;17.02;;;;;;;;;;5043345;28;20025;-52
2023/12/21 14:02:11;;;;;;;19.60;17.70;;;;;;;;;;5061079;28;20021;-55
2023/12/21 14:04:37;;;;;;;22.02;20.02;;;;;;;;;;5069781;28;20028;-53
2023/12/21 14:07:04;;;;;;;21.33;19.42;;;;;;;;;;5069629;28;20055;-53
2023/12/21 14:09:30;;;;;;;20.23;18.33;;;;;;;;;;5069494;28;20046;-53
2023/12/21 14:11:56;;;;;;;19.70;17.90;;;;;;;;;;5069367;28;20024;-53
2023/12/21 14:14:22;;;;;;;18.10;16.30;;;;;;;;;;5069429;28;20024;-52